Forside
METAR-TAF:

METAR-TAF

Lufthavne :

Olieplatform

J6-a, Holland

Breddekreds: 53-49-27N, længdekreds: 2-56-43E, højde: 34 m

Aktuelle vejr

Denne rapport blev lavet for 28 minutter siden, kl. 21:25 UTC
Vind 25 kt fra sydsydvest
Temperatur 11°C
Fugtighed 87%
Tryk 1000 hPa
Sigt 10 km eller mere

METAR: EHJA 082125Z AUTO 21025KT 9999 FEW043/// 11/09 Q1000

Tid: 23:53 (21:53 UTC)


TAF: fraværende

Vejrobservationer og prognoser fra mere end 4000 lufthavne (METAR og TAF).

De gule og røde prikker repræsenterer de meteorologiske stationer.

Flyt musen over at se navnet på stationen.

Så klik over at se vejr observationer og prognoser.

At skifte det kort: Klik på de grønne knapper med et sort kors for at zoome ind; på den grønne knap med en bindestreg for at zoome ud; eller på de grønne pile for tilstødende kort.


METAR-TAF: